createdAt,value
2023-04-23T00:01:15.357Z,11.75
2023-04-23T00:04:01.559Z,11.62
2023-04-23T00:06:47.453Z,11.59
2023-04-23T00:09:33.262Z,11.65
2023-04-23T00:12:19.384Z,11.52
2023-04-23T00:15:05.208Z,11.39
2023-04-23T00:17:51.027Z,11.48
2023-04-23T00:20:37.000Z,11.31
2023-04-23T00:23:22.824Z,11.42
2023-04-23T00:26:08.684Z,11.52
2023-04-23T00:28:54.537Z,11.23
2023-04-23T00:31:40.517Z,11.26
2023-04-23T00:34:26.340Z,11.07
2023-04-23T00:37:12.137Z,10.85
2023-04-23T00:39:57.946Z,11.33
2023-04-23T00:42:43.817Z,11.57
2023-04-23T00:45:29.573Z,11.67
2023-04-23T00:48:15.608Z,11.74
2023-04-23T00:51:01.407Z,11.65
2023-04-23T00:53:47.227Z,11.63
2023-04-23T00:56:33.182Z,11.46
2023-04-23T00:59:19.000Z,11.26
2023-04-23T01:02:05.060Z,10.91
2023-04-23T01:04:53.263Z,11.17
2023-04-23T01:07:39.189Z,10.86
2023-04-23T01:10:25.063Z,11.22
2023-04-23T01:13:10.936Z,10.75
2023-04-23T01:15:56.746Z,10.78
2023-04-23T01:18:45.968Z,11.06
2023-04-23T01:21:31.800Z,11.01
2023-04-23T01:24:17.633Z,10.69
2023-04-23T01:27:03.526Z,10.66
2023-04-23T01:29:49.382Z,10.69
2023-04-23T01:32:35.288Z,10.95
2023-04-23T01:35:21.207Z,10.74
2023-04-23T01:38:07.009Z,10.86
2023-04-23T01:40:52.930Z,11.07
2023-04-23T01:43:38.801Z,10.98
2023-04-23T01:46:24.627Z,10.63
2023-04-23T01:49:10.610Z,10.73
2023-04-23T01:51:56.572Z,10.78
2023-04-23T01:54:42.619Z,11.00
2023-04-23T01:57:28.832Z,11.36
2023-04-23T02:00:14.772Z,11.34
2023-04-23T02:03:00.795Z,11.33
2023-04-23T02:05:47.049Z,11.27
2023-04-23T02:08:32.852Z,11.62
2023-04-23T02:11:18.718Z,11.72
2023-04-23T02:14:04.530Z,11.77
2023-04-23T02:16:50.407Z,12.08
2023-04-23T02:19:36.253Z,11.91
2023-04-23T02:22:22.044Z,12.10
2023-04-23T02:25:08.045Z,11.85
2023-04-23T02:27:53.795Z,12.05
2023-04-23T02:30:39.649Z,11.87
2023-04-23T02:33:25.429Z,11.84
2023-04-23T02:36:11.227Z,11.23
2023-04-23T02:38:57.105Z,10.96
2023-04-23T02:41:42.933Z,11.13
2023-04-23T02:44:28.703Z,11.22
2023-04-23T02:47:14.718Z,11.42
2023-04-23T02:50:00.645Z,11.64
2023-04-23T02:52:46.564Z,11.91
2023-04-23T02:55:32.534Z,11.57
2023-04-23T02:58:18.337Z,11.79
2023-04-23T03:01:04.346Z,11.79
2023-04-23T03:03:50.434Z,11.65
2023-04-23T03:06:36.707Z,11.70
2023-04-23T03:09:22.464Z,11.98
2023-04-23T03:12:08.236Z,11.92
2023-04-23T03:14:54.120Z,11.65
2023-04-23T03:17:39.998Z,12.21
2023-04-23T03:20:25.870Z,12.05
2023-04-23T03:23:11.843Z,12.02
2023-04-23T03:25:57.632Z,11.96
2023-04-23T03:28:43.607Z,12.06
2023-04-23T03:31:29.448Z,12.23
2023-04-23T03:34:15.153Z,12.21
2023-04-23T03:37:01.131Z,12.32
2023-04-23T03:39:47.166Z,12.34
2023-04-23T03:42:33.118Z,12.45
2023-04-23T03:45:18.978Z,12.76
2023-04-23T03:48:04.784Z,12.81
2023-04-23T03:50:50.751Z,12.95
2023-04-23T03:53:36.779Z,13.01
2023-04-23T03:56:22.909Z,13.18
2023-04-23T03:59:09.680Z,13.07
2023-04-23T04:01:55.614Z,13.01
2023-04-23T04:04:41.864Z,13.22
2023-04-23T04:07:27.984Z,13.29
2023-04-23T04:10:13.723Z,13.06
2023-04-23T04:12:59.519Z,12.77
2023-04-23T04:15:45.497Z,12.89
2023-04-23T04:18:31.227Z,13.06
2023-04-23T04:21:17.003Z,12.81
2023-04-23T04:24:02.794Z,12.85
2023-04-23T04:26:48.726Z,12.57
2023-04-23T04:29:34.565Z,12.74
2023-04-23T04:32:20.484Z,12.66
2023-04-23T04:35:06.332Z,12.91
2023-04-23T04:37:52.261Z,12.82
2023-04-23T04:40:38.098Z,12.85
2023-04-23T04:43:23.887Z,13.15
2023-04-23T04:46:09.808Z,12.90
2023-04-23T04:48:55.722Z,12.90
2023-04-23T04:51:41.704Z,12.52
2023-04-23T04:54:29.426Z,12.69
2023-04-23T04:57:15.327Z,12.94
2023-04-23T05:00:01.362Z,12.88
2023-04-23T05:02:47.355Z,13.00
2023-04-23T05:05:33.693Z,13.12
2023-04-23T05:08:19.518Z,13.22
2023-04-23T05:11:07.365Z,13.25
2023-04-23T05:13:53.333Z,13.48
2023-04-23T05:16:39.203Z,13.23
2023-04-23T05:19:25.000Z,13.34
2023-04-23T05:22:10.974Z,13.52
2023-04-23T05:24:56.711Z,13.48
2023-04-23T05:27:42.578Z,13.77
2023-04-23T05:30:28.575Z,13.52
2023-04-23T05:33:14.262Z,13.75
2023-04-23T05:36:00.262Z,13.86
2023-04-23T05:38:46.401Z,14.03
2023-04-23T05:41:32.179Z,14.09
2023-04-23T05:44:18.078Z,14.10
2023-04-23T05:47:03.927Z,14.22
2023-04-23T05:49:49.849Z,14.32
2023-04-23T05:52:35.764Z,14.44
2023-04-23T05:55:21.591Z,14.68
2023-04-23T05:58:07.482Z,14.72
2023-04-23T06:00:53.319Z,14.77
2023-04-23T06:03:39.389Z,14.86
2023-04-23T06:06:25.513Z,14.72
2023-04-23T06:09:11.269Z,14.93
2023-04-23T06:11:59.141Z,14.76
2023-04-23T06:14:45.060Z,14.66
2023-04-23T06:17:30.852Z,14.52
2023-04-23T06:20:16.800Z,14.61
2023-04-23T06:23:02.683Z,14.72
2023-04-23T06:25:48.438Z,14.83
2023-04-23T06:28:34.374Z,15.01
2023-04-23T06:31:20.194Z,15.20
2023-04-23T06:34:06.231Z,15.29
2023-04-23T06:36:52.240Z,15.14
2023-04-23T06:39:38.122Z,15.14
2023-04-23T06:42:24.023Z,15.21
2023-04-23T06:45:09.924Z,15.28
2023-04-23T06:47:55.824Z,15.36
2023-04-23T06:50:41.832Z,15.42
2023-04-23T06:53:27.596Z,15.33
2023-04-23T06:56:13.540Z,15.52
2023-04-23T06:58:59.404Z,15.61
2023-04-23T07:01:45.221Z,15.52
2023-04-23T07:04:31.210Z,15.63
2023-04-23T07:07:17.231Z,15.80
2023-04-23T07:10:03.119Z,15.84
2023-04-23T07:12:49.260Z,15.90
2023-04-23T07:15:35.457Z,15.90
2023-04-23T07:18:21.374Z,16.05
2023-04-23T07:21:07.308Z,16.01
2023-04-23T07:23:53.122Z,16.15
2023-04-23T07:26:39.044Z,16.16
2023-04-23T07:29:24.936Z,16.24
2023-04-23T07:32:10.964Z,15.81
2023-04-23T07:34:56.913Z,15.73
2023-04-23T07:37:42.794Z,15.37
2023-04-23T07:40:28.793Z,15.17
2023-04-23T07:43:14.727Z,15.01
2023-04-23T07:46:00.578Z,15.15
2023-04-23T07:48:46.480Z,15.25
2023-04-23T07:51:32.273Z,15.10
2023-04-23T07:54:18.186Z,15.14
2023-04-23T07:57:04.077Z,15.39
2023-04-23T07:59:49.888Z,15.02
2023-04-23T08:02:36.485Z,15.37
2023-04-23T08:05:22.399Z,15.18
2023-04-23T08:08:08.288Z,15.02
2023-04-23T08:10:54.177Z,15.20
2023-04-23T08:13:39.994Z,15.19
2023-04-23T08:16:25.916Z,15.16
2023-04-23T08:19:11.733Z,15.17
2023-04-23T08:21:57.588Z,15.03
2023-04-23T08:24:43.478Z,14.87
2023-04-23T08:27:29.356Z,14.86
2023-04-23T08:30:15.280Z,15.03
2023-04-23T08:33:01.279Z,15.23
2023-04-23T08:35:46.995Z,15.32
2023-04-23T08:38:33.009Z,15.57
2023-04-23T08:41:18.767Z,15.83
2023-04-23T08:44:04.670Z,15.90
2023-04-23T08:46:50.631Z,15.60
2023-04-23T08:49:36.450Z,15.53
2023-04-23T08:52:22.220Z,15.43
2023-04-23T08:55:08.093Z,15.30
2023-04-23T08:57:53.784Z,15.27
2023-04-23T09:00:39.615Z,15.37
2023-04-23T09:03:25.480Z,15.80
2023-04-23T09:06:11.343Z,15.50
2023-04-23T09:08:57.297Z,15.31
2023-04-23T09:11:43.091Z,14.73
2023-04-23T09:14:28.929Z,14.92
2023-04-23T09:17:14.649Z,14.96
2023-04-23T09:20:00.519Z,15.17
2023-04-23T09:22:47.434Z,14.66
2023-04-23T09:25:33.514Z,14.75
2023-04-23T09:28:19.628Z,15.15
2023-04-23T09:31:05.588Z,15.49
2023-04-23T09:33:51.327Z,15.33
2023-04-23T09:36:37.190Z,15.65
2023-04-23T09:39:23.186Z,15.85
2023-04-23T09:42:09.044Z,15.99
2023-04-23T09:44:54.964Z,15.87
2023-04-23T09:47:40.869Z,16.17
2023-04-23T09:50:26.819Z,15.85
2023-04-23T09:53:12.664Z,15.70
2023-04-23T09:55:58.451Z,15.52
2023-04-23T09:58:44.251Z,15.33
2023-04-23T10:01:30.115Z,15.09
2023-04-23T10:04:16.336Z,14.93
2023-04-23T10:09:53.465Z,14.73
2023-04-23T10:12:53.712Z,14.98
2023-04-23T10:15:41.300Z,14.53
2023-04-23T10:18:27.234Z,14.53
2023-04-23T10:21:13.120Z,15.09
2023-04-23T10:23:58.984Z,15.13
2023-04-23T10:26:44.833Z,14.89
2023-04-23T10:29:30.604Z,15.03
2023-04-23T10:32:16.562Z,15.43
2023-04-23T10:35:02.500Z,15.28
2023-04-23T10:37:48.526Z,15.18
2023-04-23T10:40:34.349Z,15.16
2023-04-23T10:43:20.225Z,15.57
2023-04-23T10:46:06.249Z,15.44
2023-04-23T10:48:54.085Z,15.46
2023-04-23T10:54:28.873Z,16.07
2023-04-23T10:57:14.703Z,16.08
2023-04-23T11:00:00.639Z,15.75
2023-04-23T11:02:46.757Z,15.47
2023-04-23T11:05:33.030Z,15.82
2023-04-23T11:08:20.060Z,16.13
2023-04-23T11:11:06.401Z,16.04
2023-04-23T11:13:52.248Z,15.86
2023-04-23T11:16:38.100Z,16.15
2023-04-23T11:19:23.893Z,16.29
2023-04-23T11:22:09.738Z,16.04
2023-04-23T11:24:55.793Z,16.20
2023-04-23T11:27:41.678Z,16.15
2023-04-23T11:30:27.622Z,16.02
2023-04-23T11:33:13.606Z,15.91
2023-04-23T11:35:59.531Z,15.99
2023-04-23T11:38:45.385Z,15.62
2023-04-23T11:41:31.286Z,15.12
2023-04-23T11:44:17.194Z,15.55
2023-04-23T11:47:03.040Z,15.41
2023-04-23T11:49:48.914Z,15.48
2023-04-23T11:52:34.898Z,16.04
2023-04-23T11:55:20.799Z,15.96
2023-04-23T11:58:06.721Z,16.24
2023-04-23T12:00:52.678Z,16.03
2023-04-23T12:03:38.776Z,15.99
2023-04-23T12:06:24.942Z,15.93
2023-04-23T12:09:10.857Z,15.85
2023-04-23T12:11:56.647Z,16.01
2023-04-23T12:14:42.465Z,15.73
2023-04-23T12:17:28.317Z,15.99
2023-04-23T12:20:14.161Z,15.95
2023-04-23T12:23:00.211Z,15.85
2023-04-23T12:25:45.946Z,16.13
2023-04-23T12:28:31.897Z,16.16
2023-04-23T12:31:17.824Z,16.29
2023-04-23T12:34:03.612Z,16.31
2023-04-23T12:36:49.450Z,16.44
2023-04-23T12:39:35.349Z,16.51
2023-04-23T12:42:21.174Z,16.69
2023-04-23T12:45:07.122Z,15.99
2023-04-23T12:47:53.058Z,16.28
2023-04-23T12:50:39.183Z,15.93
2023-04-23T12:53:25.204Z,15.70
2023-04-23T12:56:11.110Z,16.16
2023-04-23T12:58:56.979Z,15.91
2023-04-23T13:01:42.727Z,15.61
2023-04-23T13:04:28.549Z,15.64
2023-04-23T13:07:14.474Z,15.42
2023-04-23T13:10:00.319Z,15.43
2023-04-23T13:12:46.190Z,15.81
2023-04-23T13:15:32.067Z,15.98
2023-04-23T13:18:17.927Z,15.93
2023-04-23T13:21:03.796Z,15.91
2023-04-23T13:23:49.526Z,15.89
2023-04-23T13:26:35.398Z,16.20
2023-04-23T13:29:21.398Z,16.22
2023-04-23T13:32:09.371Z,16.32
2023-04-23T13:34:55.700Z,16.26
2023-04-23T13:37:41.594Z,15.79
2023-04-23T13:40:27.369Z,15.94
2023-04-23T13:43:13.231Z,15.87
2023-04-23T13:45:59.217Z,15.99
2023-04-23T13:48:45.062Z,16.07
2023-04-23T13:51:34.636Z,16.11
2023-04-23T13:54:21.907Z,16.40
2023-04-23T13:57:07.749Z,16.40
2023-04-23T13:59:53.709Z,15.67
2023-04-23T14:02:39.620Z,15.40
2023-04-23T14:05:25.532Z,15.69
2023-04-23T14:08:11.500Z,15.72
2023-04-23T14:10:57.393Z,15.94
2023-04-23T14:13:43.250Z,15.65
2023-04-23T14:16:29.375Z,15.81
2023-04-23T14:19:15.471Z,15.65
2023-04-23T14:22:01.468Z,16.08
2023-04-23T14:24:47.244Z,16.36
2023-04-23T14:27:33.145Z,16.42
2023-04-23T14:30:19.050Z,16.28
2023-04-23T14:33:04.966Z,16.76
2023-04-23T14:35:50.844Z,16.59
2023-04-23T14:38:36.824Z,16.38
2023-04-23T14:41:22.618Z,16.70
2023-04-23T14:44:09.637Z,16.54
2023-04-23T14:46:55.476Z,16.74
2023-04-23T14:49:41.591Z,17.06
2023-04-23T14:52:27.640Z,16.82
2023-04-23T14:55:13.487Z,16.55
2023-04-23T14:57:59.324Z,16.46
2023-04-23T15:00:45.185Z,16.30
2023-04-23T15:03:31.112Z,16.18
2023-04-23T15:06:17.311Z,16.66
2023-04-23T15:09:03.078Z,16.49
2023-04-23T15:11:48.835Z,16.37
2023-04-23T15:14:34.645Z,16.23
2023-04-23T15:17:20.446Z,16.17
2023-04-23T15:20:06.443Z,16.20
2023-04-23T15:22:52.436Z,16.32
2023-04-23T15:25:38.296Z,15.97
2023-04-23T15:28:24.231Z,16.15
2023-04-23T15:31:09.995Z,15.85
2023-04-23T15:33:55.863Z,15.93
2023-04-23T15:36:41.810Z,15.72
2023-04-23T15:39:27.668Z,15.74
2023-04-23T15:42:13.649Z,15.15
2023-04-23T15:44:59.664Z,14.84
2023-04-23T15:47:45.434Z,14.84
2023-04-23T15:50:31.349Z,14.70
2023-04-23T15:53:17.206Z,13.87
2023-04-23T15:56:03.110Z,13.10
2023-04-23T15:58:48.954Z,12.46
2023-04-23T16:01:34.935Z,11.53
2023-04-23T16:04:20.869Z,11.30
2023-04-23T16:07:07.150Z,10.88
2023-04-23T16:09:53.037Z,10.80
2023-04-23T16:12:38.931Z,10.44
2023-04-23T16:15:24.818Z,10.47
2023-04-23T16:18:10.770Z,10.60
2023-04-23T16:20:56.775Z,10.36
2023-04-23T16:23:42.656Z,10.43
2023-04-23T16:26:28.445Z,10.16
2023-04-23T16:29:22.088Z,10.08
2023-04-23T16:32:08.873Z,9.97
2023-04-23T16:34:54.745Z,10.18
2023-04-23T16:37:40.640Z,10.30
2023-04-23T16:40:26.472Z,10.73
2023-04-23T16:43:12.381Z,10.65
2023-04-23T16:45:58.402Z,10.26
2023-04-23T16:48:44.188Z,10.65
2023-04-23T16:51:30.082Z,10.41
2023-04-23T16:54:15.951Z,10.68
2023-04-23T16:57:01.764Z,10.28
2023-04-23T16:59:47.676Z,10.46
2023-04-23T17:02:33.525Z,11.05
2023-04-23T17:05:19.660Z,11.19
2023-04-23T17:08:05.482Z,11.30
2023-04-23T17:10:51.187Z,11.37
2023-04-23T17:13:37.239Z,11.47
2023-04-23T17:16:23.215Z,11.76
2023-04-23T17:19:09.070Z,11.85
2023-04-23T17:21:55.066Z,11.95
2023-04-23T17:24:43.240Z,12.21
2023-04-23T17:27:29.540Z,12.07
2023-04-23T17:30:15.649Z,12.59
2023-04-23T17:33:01.473Z,12.73
2023-04-23T17:35:47.489Z,12.23
2023-04-23T17:38:33.346Z,12.44
2023-04-23T17:41:19.191Z,12.34
2023-04-23T17:44:05.364Z,12.37
2023-04-23T17:46:51.132Z,12.72
2023-04-23T17:49:37.051Z,12.71
2023-04-23T17:52:22.981Z,12.84
2023-04-23T17:55:08.868Z,12.93
2023-04-23T17:57:54.847Z,13.20
2023-04-23T18:00:40.708Z,13.26
2023-04-23T18:03:26.620Z,13.44
2023-04-23T18:06:12.960Z,13.41
2023-04-23T18:09:00.871Z,13.30
2023-04-23T18:11:46.805Z,12.89
2023-04-23T18:14:32.699Z,12.36
2023-04-23T18:17:18.554Z,12.23
2023-04-23T18:20:06.468Z,12.10
2023-04-23T18:22:52.270Z,11.75
2023-04-23T18:25:38.090Z,11.93
2023-04-23T18:28:24.052Z,11.78
2023-04-23T18:31:10.090Z,11.80
2023-04-23T18:33:55.874Z,11.70
2023-04-23T18:36:41.632Z,11.77
2023-04-23T18:39:29.058Z,11.51
2023-04-23T18:42:17.703Z,11.58
2023-04-23T18:45:03.707Z,11.62
2023-04-23T18:47:49.727Z,11.72
2023-04-23T18:50:35.527Z,11.90
2023-04-23T18:53:22.287Z,12.06
2023-04-23T18:56:08.342Z,11.82
2023-04-23T18:58:54.141Z,11.82
2023-04-23T19:01:40.271Z,11.90
2023-04-23T19:04:26.540Z,12.26
2023-04-23T19:07:12.750Z,12.25
2023-04-23T19:09:58.650Z,12.52
2023-04-23T19:12:44.438Z,12.70
2023-04-23T19:15:30.432Z,12.75
2023-04-23T19:18:16.401Z,12.78
2023-04-23T19:21:02.223Z,12.60
2023-04-23T19:23:48.194Z,12.49
2023-04-23T19:26:34.081Z,12.68
2023-04-23T19:29:20.086Z,12.76
2023-04-23T19:32:06.025Z,12.40
2023-04-23T19:34:51.822Z,12.53
2023-04-23T19:37:37.827Z,12.30
2023-04-23T19:40:23.730Z,11.74
2023-04-23T19:43:10.845Z,11.80
2023-04-23T19:45:58.542Z,11.91
2023-04-23T19:48:44.421Z,11.52
2023-04-23T19:51:30.276Z,11.58
2023-04-23T19:54:18.256Z,11.76
2023-04-23T19:57:04.099Z,11.80
2023-04-23T19:59:49.988Z,11.76
2023-04-23T20:02:36.121Z,11.99
2023-04-23T20:05:22.184Z,12.05
2023-04-23T20:08:07.960Z,12.32
2023-04-23T20:10:53.905Z,12.16
2023-04-23T20:13:39.785Z,12.27
2023-04-23T20:16:25.686Z,12.48
2023-04-23T20:19:11.838Z,12.27
2023-04-23T20:21:57.652Z,12.13
2023-04-23T20:24:43.570Z,12.32
2023-04-23T20:27:29.415Z,12.14
2023-04-23T20:30:15.534Z,12.04
2023-04-23T20:33:01.563Z,12.08
2023-04-23T20:35:47.449Z,12.14
2023-04-23T20:38:33.406Z,12.08
2023-04-23T20:41:19.153Z,12.32
2023-04-23T20:44:04.869Z,12.23
2023-04-23T20:46:50.768Z,12.20
2023-04-23T20:49:36.652Z,12.25
2023-04-23T20:52:22.614Z,12.15
2023-04-23T20:55:08.488Z,11.48
2023-04-23T20:57:54.394Z,10.66
2023-04-23T21:00:40.244Z,10.57
2023-04-23T21:03:26.103Z,10.60
2023-04-23T21:06:12.272Z,10.48
2023-04-23T21:08:58.156Z,10.65
2023-04-23T21:11:44.140Z,10.52
2023-04-23T21:14:30.002Z,10.33
2023-04-23T21:17:15.754Z,10.69
2023-04-23T21:20:01.675Z,10.94
2023-04-23T21:22:47.568Z,10.92
2023-04-23T21:25:33.292Z,9.71
2023-04-23T21:28:19.105Z,9.52
2023-04-23T21:31:05.074Z,8.48
2023-04-23T21:33:50.974Z,8.77
2023-04-23T21:36:36.823Z,8.87
2023-04-23T21:39:22.467Z,8.97
2023-04-23T21:42:08.333Z,9.14
2023-04-23T21:44:54.181Z,8.91
2023-04-23T21:47:39.986Z,9.78
2023-04-23T21:50:25.891Z,9.87
2023-04-23T21:53:11.757Z,9.97
2023-04-23T21:55:57.555Z,9.87
2023-04-23T21:58:43.537Z,10.35
2023-04-23T22:01:29.367Z,9.44
2023-04-23T22:04:15.378Z,9.47
2023-04-23T22:07:01.626Z,9.18
2023-04-23T22:09:47.429Z,9.99
2023-04-23T22:12:33.326Z,10.63
2023-04-23T22:15:19.192Z,9.05
2023-04-23T22:18:05.077Z,7.46
2023-04-23T22:20:51.109Z,7.40
2023-04-23T22:23:36.884Z,7.14
2023-04-23T22:26:22.764Z,6.84
2023-04-23T22:29:08.605Z,6.49
2023-04-23T22:31:54.414Z,6.04
2023-04-23T22:34:40.262Z,6.20
2023-04-23T22:37:26.105Z,6.47
2023-04-23T22:40:12.082Z,6.52
2023-04-23T22:42:57.985Z,6.91
2023-04-23T22:45:43.804Z,8.17
2023-04-23T22:48:29.661Z,8.28
2023-04-23T22:51:15.455Z,7.39
2023-04-23T22:54:01.168Z,8.21
2023-04-23T22:56:47.068Z,8.62
2023-04-23T22:59:32.882Z,7.89
2023-04-23T23:02:18.767Z,6.85
2023-04-23T23:05:04.682Z,7.60
2023-04-23T23:07:50.506Z,8.39
2023-04-23T23:10:36.271Z,8.57
2023-04-23T23:13:22.001Z,8.83
2023-04-23T23:16:07.935Z,9.06
2023-04-23T23:18:53.944Z,8.84
2023-04-23T23:21:39.789Z,8.58
2023-04-23T23:24:25.699Z,8.86
2023-04-23T23:27:11.513Z,8.71
2023-04-23T23:29:57.296Z,8.83
2023-04-23T23:32:43.255Z,8.92
2023-04-23T23:35:29.057Z,9.01
2023-04-23T23:38:14.942Z,9.00
2023-04-23T23:41:00.640Z,9.11
2023-04-23T23:43:46.376Z,9.29
2023-04-23T23:46:32.266Z,9.36
2023-04-23T23:49:18.157Z,9.50
2023-04-23T23:52:04.008Z,9.57
2023-04-23T23:54:49.927Z,9.29
2023-04-23T23:57:35.769Z,8.66
